createdAt,value
2019-05-12T00:00:14.923Z,1016.48
2019-05-12T00:01:14.914Z,1016.45
2019-05-12T00:02:14.909Z,1016.46
2019-05-12T00:03:14.900Z,1016.43
2019-05-12T00:04:14.887Z,1016.46
2019-05-12T00:05:14.903Z,1016.46
2019-05-12T00:06:14.872Z,1016.48
2019-05-12T00:07:14.870Z,1016.50
2019-05-12T00:08:14.893Z,1016.52
2019-05-12T00:09:14.857Z,1016.50
2019-05-12T00:10:14.858Z,1016.53
2019-05-12T00:11:14.841Z,1016.55
2019-05-12T00:12:14.835Z,1016.59
2019-05-12T00:13:14.839Z,1016.60
2019-05-12T00:14:14.824Z,1016.56
2019-05-12T00:15:14.821Z,1016.61
2019-05-12T00:16:14.803Z,1016.61
2019-05-12T00:17:14.808Z,1016.60
2019-05-12T00:18:14.790Z,1016.61
2019-05-12T00:19:14.784Z,1016.65
2019-05-12T00:20:14.782Z,1016.61
2019-05-12T00:21:14.775Z,1016.72
2019-05-12T00:22:14.764Z,1016.67
2019-05-12T00:23:26.744Z,1016.66
2019-05-12T00:24:14.749Z,1016.66
2019-05-12T00:25:14.740Z,1016.67
2019-05-12T00:26:14.731Z,1016.66
2019-05-12T00:27:14.729Z,1016.67
2019-05-12T00:28:14.730Z,1016.69
2019-05-12T00:29:14.738Z,1016.75
2019-05-12T00:30:14.714Z,1016.76
2019-05-12T00:31:14.702Z,1016.77
2019-05-12T00:32:14.695Z,1016.75
2019-05-12T00:33:14.689Z,1016.78
2019-05-12T00:34:14.689Z,1016.77
2019-05-12T00:35:14.678Z,1016.74
2019-05-12T00:36:14.666Z,1016.77
2019-05-12T00:37:14.659Z,1016.81
2019-05-12T00:38:14.650Z,1016.77
2019-05-12T00:39:14.641Z,1016.80
2019-05-12T00:40:14.641Z,1016.81
2019-05-12T00:41:14.630Z,1016.82
2019-05-12T00:42:14.628Z,1016.82
2019-05-12T00:43:14.639Z,1016.82
2019-05-12T00:44:14.606Z,1016.87
2019-05-12T00:45:14.617Z,1016.86
2019-05-12T00:46:14.595Z,1016.85
2019-05-12T00:47:14.598Z,1016.86
2019-05-12T00:48:14.578Z,1016.87
2019-05-12T00:49:14.572Z,1016.91
2019-05-12T00:50:14.566Z,1016.90
2019-05-12T00:51:14.560Z,1016.85
2019-05-12T00:52:14.552Z,1016.89
2019-05-12T00:53:14.547Z,1016.90
2019-05-12T00:54:14.543Z,1016.93
2019-05-12T00:55:14.531Z,1016.97
2019-05-12T00:56:14.520Z,1016.97
2019-05-12T00:57:14.509Z,1017.01
2019-05-12T00:58:14.504Z,1017.01
2019-05-12T00:59:14.500Z,1017.02
2019-05-12T01:00:14.496Z,1017.06
2019-05-12T01:01:14.493Z,1017.09
2019-05-12T01:02:14.478Z,1017.11
2019-05-12T01:03:14.469Z,1017.09
2019-05-12T01:04:14.475Z,1017.14
2019-05-12T01:05:14.460Z,1017.14
2019-05-12T01:06:14.452Z,1017.17
2019-05-12T01:07:14.451Z,1017.14
2019-05-12T01:08:14.432Z,1017.19
2019-05-12T01:09:14.429Z,1017.18
2019-05-12T01:10:14.421Z,1017.18
2019-05-12T01:11:14.415Z,1017.24
2019-05-12T01:12:14.414Z,1017.24
2019-05-12T01:13:14.406Z,1017.23
2019-05-12T01:14:14.394Z,1017.25
2019-05-12T01:15:14.390Z,1017.21
2019-05-12T01:16:14.380Z,1017.26
2019-05-12T01:17:14.370Z,1017.23
2019-05-12T01:18:14.376Z,1017.26
2019-05-12T01:19:14.363Z,1017.33
2019-05-12T01:20:14.352Z,1017.28
2019-05-12T01:21:14.337Z,1017.33
2019-05-12T01:22:14.333Z,1017.37
2019-05-12T01:23:14.325Z,1017.30
2019-05-12T01:24:14.323Z,1017.35
2019-05-12T01:25:14.316Z,1017.36
2019-05-12T01:26:14.311Z,1017.32
2019-05-12T01:27:14.300Z,1017.36
2019-05-12T01:28:14.299Z,1017.43
2019-05-12T01:29:14.287Z,1017.41
2019-05-12T01:30:14.279Z,1017.41
2019-05-12T01:31:14.266Z,1017.48
2019-05-12T01:32:14.264Z,1017.46
2019-05-12T01:33:14.260Z,1017.48
2019-05-12T01:34:14.246Z,1017.48
2019-05-12T01:35:14.238Z,1017.49
2019-05-12T01:36:14.237Z,1017.51
2019-05-12T01:37:14.229Z,1017.56
2019-05-12T01:38:14.254Z,1017.56
2019-05-12T01:39:14.219Z,1017.57
2019-05-12T01:40:14.201Z,1017.58
2019-05-12T01:41:14.199Z,1017.56
2019-05-12T01:42:14.187Z,1017.60
2019-05-12T01:43:14.185Z,1017.58
2019-05-12T01:44:14.177Z,1017.62
2019-05-12T01:45:14.177Z,1017.65
2019-05-12T01:46:14.167Z,1017.63
2019-05-12T01:47:14.160Z,1017.72
2019-05-12T01:48:14.146Z,1017.69
2019-05-12T01:49:14.153Z,1017.74
2019-05-12T01:50:14.142Z,1017.72
2019-05-12T01:51:14.132Z,1017.77
2019-05-12T01:52:14.120Z,1017.77
2019-05-12T01:53:14.116Z,1017.82
2019-05-12T01:54:15.216Z,1017.79
2019-05-12T01:55:14.101Z,1017.80
2019-05-12T01:56:14.095Z,1017.90
2019-05-12T01:57:14.120Z,1017.85
2019-05-12T01:58:14.086Z,1017.88
2019-05-12T01:59:14.069Z,1017.94
2019-05-12T02:00:14.067Z,1017.90
2019-05-12T02:01:14.056Z,1017.93
2019-05-12T02:02:14.044Z,1017.95
2019-05-12T02:03:14.037Z,1017.99
2019-05-12T02:04:14.041Z,1017.96
2019-05-12T02:05:14.038Z,1017.99
2019-05-12T02:06:14.022Z,1017.96
2019-05-12T02:07:14.013Z,1018.04
2019-05-12T02:08:14.014Z,1018.05
2019-05-12T02:09:14.002Z,1018.04
2019-05-12T02:10:13.997Z,1018.10
2019-05-12T02:11:13.995Z,1018.04
2019-05-12T02:12:13.972Z,1018.03
2019-05-12T02:13:13.976Z,1018.06
2019-05-12T02:14:13.965Z,1018.10
2019-05-12T02:15:13.968Z,1018.14
2019-05-12T02:16:13.949Z,1018.08
2019-05-12T02:17:13.957Z,1018.13
2019-05-12T02:18:13.946Z,1018.18
2019-05-12T02:19:13.929Z,1018.15
2019-05-12T02:20:13.918Z,1018.15
2019-05-12T02:21:13.915Z,1018.18
2019-05-12T02:22:13.905Z,1018.14
2019-05-12T02:23:13.901Z,1018.19
2019-05-12T02:24:24.309Z,1018.21
2019-05-12T02:25:13.881Z,1018.22
2019-05-12T02:26:13.871Z,1018.21
2019-05-12T02:27:13.866Z,1018.24
2019-05-12T02:28:13.865Z,1018.27
2019-05-12T02:29:13.859Z,1018.27
2019-05-12T02:30:13.862Z,1018.28
2019-05-12T02:31:13.841Z,1018.26
2019-05-12T02:32:13.831Z,1018.30
2019-05-12T02:33:15.944Z,1018.28
2019-05-12T02:34:15.623Z,1018.32
2019-05-12T02:35:16.081Z,1018.28
2019-05-12T02:36:15.150Z,1018.22
2019-05-12T02:37:15.391Z,1018.29
2019-05-12T02:38:14.591Z,1018.27
2019-05-12T02:39:15.026Z,1018.26
2019-05-12T02:40:15.079Z,1018.27
2019-05-12T02:41:15.449Z,1018.29
2019-05-12T02:42:15.593Z,1018.27
2019-05-12T02:43:15.481Z,1018.25
2019-05-12T02:44:14.890Z,1018.34
2019-05-12T02:45:15.437Z,1018.35
2019-05-12T02:46:15.515Z,1018.33
2019-05-12T02:47:16.009Z,1018.38
2019-05-12T02:48:14.620Z,1018.35
2019-05-12T02:49:15.667Z,1018.36
2019-05-12T02:50:14.575Z,1018.37
2019-05-12T02:51:15.504Z,1018.36
2019-05-12T02:52:15.393Z,1018.39
2019-05-12T02:53:14.478Z,1018.41
2019-05-12T02:54:14.396Z,1018.42
2019-05-12T02:55:14.912Z,1018.40
2019-05-12T02:56:15.190Z,1018.40
2019-05-12T02:57:14.401Z,1018.42
2019-05-12T02:58:15.179Z,1018.40
2019-05-12T02:59:16.228Z,1018.41
2019-05-12T03:00:15.910Z,1018.41
2019-05-12T03:01:15.218Z,1018.42
2019-05-12T03:02:14.264Z,1018.43
2019-05-12T03:03:14.585Z,1018.44
2019-05-12T03:04:14.518Z,1018.47
2019-05-12T03:05:14.798Z,1018.50
2019-05-12T03:06:15.133Z,1018.51
2019-05-12T03:07:15.321Z,1018.52
2019-05-12T03:08:15.347Z,1018.51
2019-05-12T03:09:15.091Z,1018.54
2019-05-12T03:10:14.595Z,1018.54
2019-05-12T03:11:14.818Z,1018.53
2019-05-12T03:12:14.448Z,1018.55
2019-05-12T03:13:14.900Z,1018.61
2019-05-12T03:14:15.639Z,1018.63
2019-05-12T03:15:15.114Z,1018.60
2019-05-12T03:16:14.947Z,1018.65
2019-05-12T03:17:15.325Z,1018.67
2019-05-12T03:18:14.606Z,1018.68
2019-05-12T03:19:14.976Z,1018.69
2019-05-12T03:20:15.318Z,1018.76
2019-05-12T03:21:15.295Z,1018.76
2019-05-12T03:22:14.321Z,1018.72
2019-05-12T03:23:15.762Z,1018.78
2019-05-12T03:24:14.710Z,1018.77
2019-05-12T03:25:24.090Z,1018.81
2019-05-12T03:26:15.360Z,1018.80
2019-05-12T03:27:14.626Z,1018.79
2019-05-12T03:28:15.979Z,1018.81
2019-05-12T03:29:14.789Z,1018.83
2019-05-12T03:30:18.812Z,1018.84
2019-05-12T03:31:22.157Z,1018.83
2019-05-12T03:32:17.679Z,1018.84
2019-05-12T03:33:18.751Z,1018.91
2019-05-12T03:34:18.446Z,1018.87
2019-05-12T03:35:17.635Z,1018.94
2019-05-12T03:36:18.068Z,1018.88
2019-05-12T03:37:17.984Z,1018.94
2019-05-12T03:38:14.916Z,1018.85
2019-05-12T03:39:15.007Z,1018.92
2019-05-12T03:40:14.485Z,1018.89
2019-05-12T03:41:14.731Z,1018.92
2019-05-12T03:42:14.500Z,1018.91
2019-05-12T03:43:14.658Z,1018.92
2019-05-12T03:44:15.017Z,1018.93
2019-05-12T03:45:14.913Z,1018.94
2019-05-12T03:46:15.207Z,1018.94
2019-05-12T03:47:14.471Z,1019.00
2019-05-12T03:48:14.819Z,1018.95
2019-05-12T03:49:15.320Z,1019.03
2019-05-12T03:50:14.766Z,1019.10
2019-05-12T03:51:15.483Z,1019.08
2019-05-12T03:52:15.317Z,1019.10
2019-05-12T03:53:15.468Z,1019.08
2019-05-12T03:54:15.273Z,1019.10
2019-05-12T03:55:30.248Z,1019.10
2019-05-12T03:56:15.145Z,1019.11
2019-05-12T03:57:14.957Z,1019.16
2019-05-12T03:58:15.266Z,1019.17
2019-05-12T03:59:15.005Z,1019.22
2019-05-12T04:00:15.885Z,1019.21
2019-05-12T04:01:14.998Z,1019.17
2019-05-12T04:02:15.030Z,1019.18
2019-05-12T04:03:15.311Z,1019.22
2019-05-12T04:04:15.335Z,1019.20
2019-05-12T04:05:15.608Z,1019.22
2019-05-12T04:06:15.474Z,1019.25
2019-05-12T04:07:15.227Z,1019.32
2019-05-12T04:08:15.839Z,1019.32
2019-05-12T04:09:15.417Z,1019.32
2019-05-12T04:10:15.550Z,1019.38
2019-05-12T04:11:14.583Z,1019.39
2019-05-12T04:12:14.752Z,1019.39
2019-05-12T04:13:15.089Z,1019.42
2019-05-12T04:14:14.771Z,1019.41
2019-05-12T04:15:15.225Z,1019.49
2019-05-12T04:16:16.049Z,1019.53
2019-05-12T04:17:14.928Z,1019.55
2019-05-12T04:18:16.021Z,1019.57
2019-05-12T04:19:14.683Z,1019.56
2019-05-12T04:20:15.246Z,1019.64
2019-05-12T04:21:15.608Z,1019.63
2019-05-12T04:22:15.385Z,1019.69
2019-05-12T04:23:15.343Z,1019.68
2019-05-12T04:24:14.315Z,1019.71
2019-05-12T04:25:14.699Z,1019.71
2019-05-12T04:26:16.721Z,1019.73
2019-05-12T04:27:15.033Z,1019.71
2019-05-12T04:28:15.037Z,1019.77
2019-05-12T04:29:15.431Z,1019.76
2019-05-12T04:30:14.403Z,1019.75
2019-05-12T04:31:15.523Z,1019.75
2019-05-12T04:32:14.336Z,1019.77
2019-05-12T04:33:15.527Z,1019.77
2019-05-12T04:34:15.682Z,1019.79
2019-05-12T04:35:14.834Z,1019.81
2019-05-12T04:36:14.877Z,1019.85
2019-05-12T04:37:14.867Z,1019.87
2019-05-12T04:38:14.944Z,1019.84
2019-05-12T04:39:14.709Z,1019.88
2019-05-12T04:40:14.786Z,1019.94
2019-05-12T04:41:14.544Z,1019.93
2019-05-12T04:42:14.855Z,1019.96
2019-05-12T04:43:14.610Z,1019.95
2019-05-12T04:44:15.264Z,1019.96
2019-05-12T04:45:15.529Z,1019.99
2019-05-12T04:46:14.457Z,1020.05
2019-05-12T04:47:14.626Z,1020.00
2019-05-12T04:48:15.568Z,1020.03
2019-05-12T04:49:15.719Z,1020.08
2019-05-12T04:50:15.545Z,1020.06
2019-05-12T04:51:15.405Z,1020.09
2019-05-12T04:52:15.596Z,1020.11
2019-05-12T04:53:14.367Z,1020.12
2019-05-12T04:54:15.197Z,1020.20
2019-05-12T04:55:15.080Z,1020.17
2019-05-12T04:56:19.141Z,1020.20
2019-05-12T04:57:14.958Z,1020.21
2019-05-12T04:58:15.744Z,1020.27
2019-05-12T04:59:15.792Z,1020.30
2019-05-12T05:00:15.887Z,1020.38
2019-05-12T05:01:15.601Z,1020.38
2019-05-12T05:02:15.302Z,1020.38
2019-05-12T05:03:14.216Z,1020.41
2019-05-12T05:04:15.208Z,1020.41
2019-05-12T05:05:14.547Z,1020.46
2019-05-12T05:06:14.853Z,1020.47
2019-05-12T05:07:15.027Z,1020.51
2019-05-12T05:08:14.086Z,1020.49
2019-05-12T05:09:14.388Z,1020.56
2019-05-12T05:10:14.574Z,1020.57
2019-05-12T05:11:14.791Z,1020.56
2019-05-12T05:12:13.957Z,1020.56
2019-05-12T05:13:14.984Z,1020.60
2019-05-12T05:14:16.536Z,1020.60
2019-05-12T05:15:14.595Z,1020.63
2019-05-12T05:16:14.372Z,1020.71
2019-05-12T05:17:15.008Z,1020.70
2019-05-12T05:18:13.388Z,1020.68
2019-05-12T05:19:13.893Z,1020.72
2019-05-12T05:20:13.512Z,1020.74
2019-05-12T05:21:13.913Z,1020.77
2019-05-12T05:22:13.685Z,1020.85
2019-05-12T05:23:14.270Z,1020.84
2019-05-12T05:24:14.223Z,1020.86
2019-05-12T05:25:14.398Z,1020.90
2019-05-12T05:26:22.064Z,1020.97
2019-05-12T05:27:13.282Z,1020.99
2019-05-12T05:28:14.576Z,1020.97
2019-05-12T05:29:13.509Z,1021.00
2019-05-12T05:30:13.849Z,1021.04
2019-05-12T05:31:14.047Z,1021.05
2019-05-12T05:32:14.022Z,1021.05
2019-05-12T05:33:14.472Z,1021.10
2019-05-12T05:34:14.648Z,1021.08
2019-05-12T05:35:13.669Z,1021.08
2019-05-12T05:36:15.208Z,1021.15
2019-05-12T05:37:14.616Z,1021.14
2019-05-12T05:38:19.152Z,1021.09
2019-05-12T05:39:13.922Z,1021.14
2019-05-12T05:40:14.068Z,1021.17
2019-05-12T05:41:13.471Z,1021.22
2019-05-12T05:42:13.500Z,1021.20
2019-05-12T05:43:17.761Z,1021.24
2019-05-12T05:44:13.864Z,1021.28
2019-05-12T05:45:19.685Z,1021.29
2019-05-12T05:46:13.816Z,1021.31
2019-05-12T05:47:13.893Z,1021.34
2019-05-12T05:48:14.316Z,1021.39
2019-05-12T05:49:13.306Z,1021.38
2019-05-12T05:50:13.565Z,1021.38
2019-05-12T05:51:13.620Z,1021.39
2019-05-12T05:52:13.773Z,1021.37
2019-05-12T05:53:17.406Z,1021.42
2019-05-12T05:54:13.742Z,1021.45
2019-05-12T05:55:19.945Z,1021.46
2019-05-12T05:56:14.734Z,1021.53
2019-05-12T05:57:14.330Z,1021.50
2019-05-12T05:58:12.351Z,1021.46
2019-05-12T05:59:14.824Z,1021.57
2019-05-12T06:00:20.375Z,1021.54
2019-05-12T06:01:13.686Z,1021.62
2019-05-12T06:02:13.873Z,1021.60
2019-05-12T06:03:22.262Z,1021.63
2019-05-12T06:04:14.047Z,1021.64
2019-05-12T06:05:14.279Z,1021.66
2019-05-12T06:06:14.675Z,1021.71
2019-05-12T06:07:14.387Z,1021.75
2019-05-12T06:08:18.651Z,1021.77
2019-05-12T06:09:14.127Z,1021.77
2019-05-12T06:10:14.365Z,1021.81
2019-05-12T06:11:14.831Z,1021.74
2019-05-12T06:12:13.389Z,1021.79
2019-05-12T06:13:14.240Z,1021.76
2019-05-12T06:14:14.002Z,1021.79
2019-05-12T06:15:13.603Z,1021.78
2019-05-12T06:16:20.143Z,1021.77
2019-05-12T06:17:14.492Z,1021.80
2019-05-12T06:18:13.613Z,1021.82
2019-05-12T06:19:14.091Z,1021.83
2019-05-12T06:20:13.470Z,1021.82
2019-05-12T06:21:13.739Z,1021.84
2019-05-12T06:22:15.297Z,1021.81
2019-05-12T06:23:14.527Z,1021.86
2019-05-12T06:24:15.646Z,1021.89
2019-05-12T06:25:15.804Z,1021.86
2019-05-12T06:26:14.081Z,1021.93
2019-05-12T06:27:18.651Z,1021.91
2019-05-12T06:28:14.396Z,1021.92
2019-05-12T06:29:20.287Z,1021.89
2019-05-12T06:30:14.790Z,1021.93
2019-05-12T06:31:13.854Z,1021.92
2019-05-12T06:32:14.173Z,1021.91
2019-05-12T06:33:14.252Z,1021.97
2019-05-12T06:34:15.168Z,1021.95
2019-05-12T06:35:12.055Z,1021.96
2019-05-12T06:36:13.738Z,1021.97
2019-05-12T06:37:16.587Z,1021.94
2019-05-12T06:38:13.562Z,1021.94
2019-05-12T06:39:16.474Z,1021.90
2019-05-12T06:40:14.135Z,1022.01
2019-05-12T06:41:20.299Z,1022.00
2019-05-12T06:42:16.078Z,1022.04
2019-05-12T06:43:13.957Z,1022.00
2019-05-12T06:44:14.871Z,1022.06
2019-05-12T06:45:13.968Z,1022.16
2019-05-12T06:46:20.018Z,1022.10
2019-05-12T06:47:14.178Z,1022.11
2019-05-12T06:48:13.986Z,1022.16
2019-05-12T06:49:15.299Z,1022.16
2019-05-12T06:50:14.360Z,1022.14
2019-05-12T06:51:16.973Z,1022.17
2019-05-12T06:52:14.242Z,1022.21
2019-05-12T06:53:13.781Z,1022.25
2019-05-12T06:54:14.370Z,1022.33
2019-05-12T06:55:14.050Z,1022.26
2019-05-12T06:56:15.412Z,1022.26
2019-05-12T06:57:22.201Z,1022.21
2019-05-12T06:58:13.823Z,1022.23
2019-05-12T06:59:14.078Z,1022.24
2019-05-12T07:00:11.817Z,1022.23
2019-05-12T07:01:18.827Z,1022.19
2019-05-12T07:02:13.855Z,1022.19
2019-05-12T07:03:14.057Z,1022.22
2019-05-12T07:04:14.029Z,1022.28
2019-05-12T07:05:14.440Z,1022.22
2019-05-12T07:06:17.985Z,1022.23
2019-05-12T07:07:14.123Z,1022.21
2019-05-12T07:08:11.738Z,1022.20
2019-05-12T07:09:18.618Z,1022.26
2019-05-12T07:10:19.728Z,1022.27
2019-05-12T07:11:14.076Z,1022.29
2019-05-12T07:12:13.653Z,1022.35
2019-05-12T07:13:14.664Z,1022.34
2019-05-12T07:14:18.855Z,1022.33
2019-05-12T07:15:14.147Z,1022.36
2019-05-12T07:16:16.692Z,1022.36
2019-05-12T07:17:11.662Z,1022.38
2019-05-12T07:18:14.016Z,1022.39
2019-05-12T07:19:17.447Z,1022.38
2019-05-12T07:20:11.628Z,1022.35
2019-05-12T07:21:15.488Z,1022.36
2019-05-12T07:22:19.962Z,1022.40
2019-05-12T07:23:14.049Z,1022.38
2019-05-12T07:24:11.608Z,1022.37
2019-05-12T07:25:13.430Z,1022.42
2019-05-12T07:26:14.189Z,1022.51
2019-05-12T07:27:13.934Z,1022.48
2019-05-12T07:28:11.576Z,1022.43
2019-05-12T07:29:13.417Z,1022.46
2019-05-12T07:30:13.551Z,1022.49
2019-05-12T07:31:14.074Z,1022.56
2019-05-12T07:32:16.585Z,1022.49
2019-05-12T07:33:11.535Z,1022.56
2019-05-12T07:34:13.527Z,1022.54
2019-05-12T07:35:11.505Z,1022.58
2019-05-12T07:36:13.783Z,1022.61
2019-05-12T07:37:11.500Z,1022.63
2019-05-12T07:38:12.135Z,1022.65
2019-05-12T07:39:13.542Z,1022.66
2019-05-12T07:40:13.614Z,1022.61
2019-05-12T07:41:11.463Z,1022.67
2019-05-12T07:42:13.321Z,1022.68
2019-05-12T07:43:16.249Z,1022.68
2019-05-12T07:44:14.089Z,1022.70
2019-05-12T07:45:16.630Z,1022.70
2019-05-12T07:46:13.394Z,1022.61
2019-05-12T07:47:13.658Z,1022.60
2019-05-12T07:48:11.411Z,1022.61
2019-05-12T07:49:11.406Z,1022.62
2019-05-12T07:50:18.278Z,1022.62
2019-05-12T07:51:13.600Z,1022.62
2019-05-12T07:52:13.665Z,1022.70
2019-05-12T07:53:11.391Z,1022.60
2019-05-12T07:54:11.356Z,1022.81
2019-05-12T07:55:11.352Z,1022.69
2019-05-12T07:56:11.348Z,1022.67
2019-05-12T07:57:14.915Z,1022.60
2019-05-12T07:58:15.628Z,1022.62
2019-05-12T07:59:13.448Z,1022.61
2019-05-12T08:00:20.915Z,1022.63
2019-05-12T08:01:11.311Z,1022.65
2019-05-12T08:02:11.310Z,1022.63
2019-05-12T08:03:15.943Z,1022.64
2019-05-12T08:04:13.315Z,1022.74
2019-05-12T08:05:19.651Z,1022.71
2019-05-12T08:06:13.861Z,1022.80
2019-05-12T08:07:11.260Z,1022.79
2019-05-12T08:08:11.269Z,1022.70
2019-05-12T08:09:13.452Z,1022.75
2019-05-12T08:10:15.765Z,1022.75
2019-05-12T08:11:11.237Z,1022.81
2019-05-12T08:12:19.458Z,1022.79
2019-05-12T08:13:11.216Z,1022.79
2019-05-12T08:14:13.869Z,1022.77
2019-05-12T08:15:11.207Z,1022.79
2019-05-12T08:16:11.192Z,1022.76
2019-05-12T08:17:18.636Z,1022.78
2019-05-12T08:18:11.179Z,1022.78
2019-05-12T08:19:14.981Z,1022.74
2019-05-12T08:20:13.325Z,1022.78
2019-05-12T08:21:11.157Z,1022.78
2019-05-12T08:22:13.451Z,1022.79
2019-05-12T08:23:11.140Z,1022.78
2019-05-12T08:24:11.132Z,1022.88
2019-05-12T08:25:13.236Z,1022.88
2019-05-12T08:26:16.269Z,1022.83
2019-05-12T08:27:11.114Z,1022.79
2019-05-12T08:28:15.494Z,1022.82
2019-05-12T08:29:17.022Z,1022.78
2019-05-12T08:30:11.090Z,1022.82
2019-05-12T08:31:11.086Z,1022.82
2019-05-12T08:32:16.046Z,1022.77
2019-05-12T08:33:11.072Z,1022.78
2019-05-12T08:34:13.507Z,1022.85
2019-05-12T08:35:11.051Z,1022.82
2019-05-12T08:36:13.072Z,1022.84
2019-05-12T08:37:11.033Z,1022.83
2019-05-12T08:38:11.026Z,1022.89
2019-05-12T08:39:11.749Z,1022.87
2019-05-12T08:40:11.028Z,1022.84
2019-05-12T08:41:11.018Z,1022.84
2019-05-12T08:42:11.008Z,1022.90
2019-05-12T08:43:11.025Z,1022.95
2019-05-12T08:44:13.397Z,1022.92
2019-05-12T08:45:15.242Z,1022.93
2019-05-12T08:46:12.876Z,1022.95
2019-05-12T08:47:12.165Z,1022.96
2019-05-12T08:48:17.003Z,1022.95
2019-05-12T08:49:10.959Z,1022.98
2019-05-12T08:50:13.474Z,1023.02
2019-05-12T08:51:16.895Z,1023.04
2019-05-12T08:52:10.937Z,1023.07
2019-05-12T08:53:12.280Z,1023.07
2019-05-12T08:54:10.913Z,1023.07
2019-05-12T08:55:13.839Z,1023.13
2019-05-12T08:56:14.747Z,1023.11
2019-05-12T08:57:10.885Z,1023.12
2019-05-12T08:58:10.881Z,1023.09
2019-05-12T08:59:17.579Z,1023.11
2019-05-12T09:00:13.278Z,1023.10
2019-05-12T09:01:10.864Z,1023.13
2019-05-12T09:02:11.020Z,1023.13
2019-05-12T09:03:10.865Z,1023.06
2019-05-12T09:04:14.777Z,1023.18
2019-05-12T09:05:10.864Z,1023.12
2019-05-12T09:06:17.857Z,1023.16
2019-05-12T09:07:10.824Z,1023.21
2019-05-12T09:08:10.806Z,1023.19
2019-05-12T09:09:10.798Z,1023.20
2019-05-12T09:10:10.792Z,1023.19
2019-05-12T09:11:10.788Z,1023.29
2019-05-12T09:12:10.785Z,1023.33
2019-05-12T09:13:10.780Z,1023.28
2019-05-12T09:14:10.767Z,1023.23
2019-05-12T09:15:10.770Z,1023.28
2019-05-12T09:16:10.748Z,1023.33
2019-05-12T09:17:10.746Z,1023.30
2019-05-12T09:18:10.759Z,1023.31
2019-05-12T09:19:18.251Z,1023.27
2019-05-12T09:20:10.722Z,1023.28
2019-05-12T09:21:10.728Z,1023.26
2019-05-12T09:22:18.525Z,1023.35
2019-05-12T09:23:10.697Z,1023.34
2019-05-12T09:24:15.557Z,1023.34
2019-05-12T09:25:10.689Z,1023.35
2019-05-12T09:26:10.695Z,1023.35
2019-05-12T09:27:10.693Z,1023.41
2019-05-12T09:28:10.674Z,1023.36
2019-05-12T09:29:10.654Z,1023.38
2019-05-12T09:30:10.654Z,1023.40
2019-05-12T09:31:10.644Z,1023.36
2019-05-12T09:32:10.639Z,1023.38
2019-05-12T09:33:10.630Z,1023.33
2019-05-12T09:34:14.141Z,1023.25
2019-05-12T09:35:10.615Z,1023.32
2019-05-12T09:36:11.294Z,1023.32
2019-05-12T09:37:10.605Z,1023.33
2019-05-12T09:38:11.449Z,1023.34
2019-05-12T09:39:10.591Z,1023.37
2019-05-12T09:40:10.612Z,1023.33
2019-05-12T09:41:10.572Z,1023.34
2019-05-12T09:42:10.563Z,1023.38
2019-05-12T09:43:11.034Z,1023.41
2019-05-12T09:44:10.553Z,1023.35
2019-05-12T09:45:10.728Z,1023.27
2019-05-12T09:46:10.541Z,1023.30
2019-05-12T09:47:21.917Z,1023.28
2019-05-12T09:48:10.523Z,1023.25
2019-05-12T09:49:10.521Z,1023.32
2019-05-12T09:50:18.400Z,1023.26
2019-05-12T09:51:10.506Z,1023.29
2019-05-12T09:52:13.860Z,1023.39
2019-05-12T09:53:11.605Z,1023.38
2019-05-12T09:54:10.479Z,1023.37
2019-05-12T09:55:10.484Z,1023.35
2019-05-12T09:56:10.485Z,1023.40
2019-05-12T09:57:10.471Z,1023.38
2019-05-12T09:58:14.025Z,1023.33
2019-05-12T09:59:17.964Z,1023.37
2019-05-12T10:00:10.444Z,1023.44
2019-05-12T10:01:10.486Z,1023.39
2019-05-12T10:02:15.786Z,1023.40
2019-05-12T10:03:10.439Z,1023.39
2019-05-12T10:04:15.457Z,1023.35
2019-05-12T10:05:10.415Z,1023.35
2019-05-12T10:06:11.366Z,1023.37
2019-05-12T10:07:10.385Z,1023.38
2019-05-12T10:08:10.384Z,1023.46
2019-05-12T10:09:15.437Z,1023.46
2019-05-12T10:10:10.375Z,1023.45
2019-05-12T10:11:15.284Z,1023.46
2019-05-12T10:12:10.362Z,1023.39
2019-05-12T10:13:10.377Z,1023.35
2019-05-12T10:14:11.070Z,1023.45
2019-05-12T10:15:10.370Z,1023.48
2019-05-12T10:16:10.329Z,1023.45
2019-05-12T10:17:10.321Z,1023.38
2019-05-12T10:18:11.391Z,1023.40
2019-05-12T10:19:10.308Z,1023.42
2019-05-12T10:20:10.299Z,1023.43
2019-05-12T10:21:15.242Z,1023.43
2019-05-12T10:22:10.285Z,1023.48
2019-05-12T10:23:15.647Z,1023.40
2019-05-12T10:24:10.269Z,1023.39
2019-05-12T10:25:10.263Z,1023.41
2019-05-12T10:26:11.754Z,1023.38
2019-05-12T10:27:10.303Z,1023.44
2019-05-12T10:28:13.012Z,1023.37
2019-05-12T10:29:19.602Z,1023.40
2019-05-12T10:30:12.099Z,1023.44
2019-05-12T10:31:10.227Z,1023.53
2019-05-12T10:32:10.499Z,1023.57
2019-05-12T10:33:10.215Z,1023.55
2019-05-12T10:34:10.202Z,1023.53
2019-05-12T10:35:12.567Z,1023.51
2019-05-12T10:36:10.200Z,1023.45
2019-05-12T10:37:10.191Z,1023.48
2019-05-12T10:38:10.922Z,1023.48
2019-05-12T10:39:10.162Z,1023.51
2019-05-12T10:40:10.178Z,1023.53
2019-05-12T10:41:10.153Z,1023.54
2019-05-12T10:42:10.151Z,1023.51
2019-05-12T10:43:10.159Z,1023.51
2019-05-12T10:44:10.151Z,1023.55
2019-05-12T10:45:15.441Z,1023.53
2019-05-12T10:46:10.114Z,1023.52
2019-05-12T10:47:10.110Z,1023.57
2019-05-12T10:48:10.110Z,1023.56
2019-05-12T10:49:10.102Z,1023.55
2019-05-12T10:50:10.092Z,1023.54
2019-05-12T10:51:10.094Z,1023.54
2019-05-12T10:52:10.075Z,1023.54
2019-05-12T10:53:15.444Z,1023.63
2019-05-12T10:54:13.218Z,1023.64
2019-05-12T10:55:10.056Z,1023.65
2019-05-12T10:56:10.055Z,1023.59
2019-05-12T10:57:10.037Z,1023.53
2019-05-12T10:58:10.032Z,1023.54
2019-05-12T10:59:10.032Z,1023.56
2019-05-12T11:00:10.044Z,1023.59
2019-05-12T11:01:10.022Z,1023.61
2019-05-12T11:02:10.031Z,1023.65
2019-05-12T11:03:12.341Z,1023.61
2019-05-12T11:04:09.992Z,1023.67
2019-05-12T11:05:12.467Z,1023.69
2019-05-12T11:06:09.983Z,1023.74
2019-05-12T11:07:09.976Z,1023.76
2019-05-12T11:08:11.351Z,1023.73
2019-05-12T11:09:09.981Z,1023.68
2019-05-12T11:10:16.487Z,1023.73
2019-05-12T11:11:09.950Z,1023.67
2019-05-12T11:12:09.943Z,1023.71
2019-05-12T11:13:10.076Z,1023.70
2019-05-12T11:14:09.940Z,1023.69
2019-05-12T11:15:09.919Z,1023.65
2019-05-12T11:16:09.910Z,1023.65
2019-05-12T11:17:09.907Z,1023.67
2019-05-12T11:18:09.891Z,1023.66
2019-05-12T11:19:10.678Z,1023.76
2019-05-12T11:20:09.891Z,1023.81
2019-05-12T11:21:09.883Z,1023.80
2019-05-12T11:22:09.875Z,1023.77
2019-05-12T11:23:09.862Z,1023.93
2019-05-12T11:24:09.862Z,1023.86
2019-05-12T11:25:09.849Z,1023.82
2019-05-12T11:26:09.846Z,1023.79
2019-05-12T11:27:09.842Z,1023.87
2019-05-12T11:28:09.821Z,1023.82
2019-05-12T11:29:09.826Z,1023.90
2019-05-12T11:30:09.813Z,1023.92
2019-05-12T11:31:09.803Z,1023.86
2019-05-12T11:32:09.802Z,1023.87
2019-05-12T11:33:09.796Z,1024.02
2019-05-12T11:34:09.788Z,1023.97
2019-05-12T11:35:09.786Z,1023.86
2019-05-12T11:36:09.770Z,1023.88
2019-05-12T11:37:09.764Z,1023.90
2019-05-12T11:38:09.758Z,1023.89
2019-05-12T11:39:09.748Z,1023.86
2019-05-12T11:40:09.747Z,1023.91
2019-05-12T11:41:14.943Z,1023.89
2019-05-12T11:42:09.729Z,1023.95
2019-05-12T11:43:09.739Z,1023.95
2019-05-12T11:44:09.722Z,1024.17
2019-05-12T11:45:09.715Z,1024.01
2019-05-12T11:46:09.710Z,1023.96
2019-05-12T11:47:16.919Z,1023.94
2019-05-12T11:48:10.361Z,1024.00
2019-05-12T11:49:09.764Z,1023.96
2019-05-12T11:50:10.199Z,1023.95
2019-05-12T11:51:09.674Z,1024.00
2019-05-12T11:52:15.322Z,1024.00
2019-05-12T11:53:09.668Z,1024.02
2019-05-12T11:54:10.927Z,1024.01
2019-05-12T11:55:09.646Z,1023.94
2019-05-12T11:56:09.632Z,1023.95
2019-05-12T11:57:09.635Z,1023.94
2019-05-12T11:58:11.600Z,1023.97
2019-05-12T11:59:09.622Z,1024.03
2019-05-12T12:00:09.611Z,1024.03
2019-05-12T12:01:09.606Z,1024.01
2019-05-12T12:02:09.592Z,1023.97
2019-05-12T12:03:17.062Z,1023.97
2019-05-12T12:04:09.587Z,1023.95
2019-05-12T12:05:09.599Z,1024.00